Time;durP1;ratioP1;P1;durP2;ratioP2;P2;SDS_P1;SDS_P2;PMS_P1;PMS_P2;Temp;Humidity;BMP_temperature;BMP_pressure;BME280_temperature;BME280_humidity;BME280_pressure;Samples;Min_cycle;Max_cycle;Signal;HPM_P1;HPM_P2
2021/05/14 00:01:11;;;;;;;;;;;;;;;11.33;66.31;99030.19;2221734;40;19948;-78
2021/05/14 00:02:42;;;;;;;;;;;;;;;11.28;66.45;99037.91;2217838;40;19945;-78
2021/05/14 00:04:13;;;;;;;;;;;;;;;11.23;66.78;99034.91;2218995;40;20213;-79
2021/05/14 00:05:46;;;;;;;;;;;;;;;11.20;66.78;99041.44;2216964;40;19941;-78
2021/05/14 00:07:18;;;;;;;;;;;;;;;11.19;66.91;99039.75;2210479;40;19995;-79
2021/05/14 00:08:49;;;;;;;;;;;;;;;11.15;67.06;99040.28;2191859;40;19974;-80
2021/05/14 00:10:21;;;;;;;;;;;;;;;11.13;67.14;99035.09;2212553;40;19949;-78
2021/05/14 00:11:52;;;;;;;;;;;;;;;11.12;67.21;99037.97;2213266;40;20026;-78
2021/05/14 00:13:24;;;;;;;;;;;;;;;11.08;67.28;99032.97;2216649;40;19979;-79
2021/05/14 00:14:55;;;;;;;;;;;;;;;11.06;67.45;99039.50;2215340;40;19953;-78
2021/05/14 00:16:26;;;;;;;;;;;;;;;11.03;67.55;99035.31;2216415;40;19953;-79
2021/05/14 00:17:57;;;;;;;;;;;;;;;11.02;67.65;99032.81;2213400;40;19941;-78
2021/05/14 00:19:28;;;;;;;;;;;;;;;11.00;67.72;99030.31;2210829;40;19944;-78
2021/05/14 00:21:00;;;;;;;;;;;;;;;11.00;67.76;99027.63;2209285;40;19941;-79
2021/05/14 00:22:31;;;;;;;;;;;;;;;11.00;67.70;99024.97;2214201;40;19940;-78
2021/05/14 00:24:02;;;;;;;;;;;;;;;10.96;67.87;99034.31;2211696;40;19944;-79
2021/05/14 00:25:33;;;;;;;;;;;;;;;10.91;68.08;99032.16;2211742;40;20254;-78
2021/05/14 00:27:04;;;;;;;;;;;;;;;10.90;68.26;99035.03;2212355;40;19946;-80
2021/05/14 00:28:35;;;;;;;;;;;;;;;10.89;68.38;99041.38;2218234;40;19945;-78
2021/05/14 00:30:08;;;;;;;;;;;;;;;10.87;68.43;99032.69;2211989;40;20188;-79
2021/05/14 00:31:39;;;;;;;;;;;;;;;10.88;68.33;99031.69;2210982;40;19953;-79
2021/05/14 00:33:10;;;;;;;;;;;;;;;10.90;68.48;99040.38;2213164;40;20310;-79
2021/05/14 00:34:41;;;;;;;;;;;;;;;10.90;68.46;99035.03;2217373;40;20309;-79
2021/05/14 00:36:13;;;;;;;;;;;;;;;10.92;68.39;99039.19;2212939;40;19968;-79
2021/05/14 00:37:44;;;;;;;;;;;;;;;10.96;68.36;99037.00;2210399;40;19988;-80
2021/05/14 00:39:15;;;;;;;;;;;;;;;10.97;68.33;99033.31;2214583;40;19937;-79
2021/05/14 00:40:46;;;;;;;;;;;;;;;10.98;68.35;99044.88;2218512;40;19937;-80
2021/05/14 00:42:17;;;;;;;;;;;;;;;10.99;68.43;99034.00;2217335;39;19948;-78
2021/05/14 00:43:48;;;;;;;;;;;;;;;10.97;68.45;99041.34;2217915;40;19977;-78
2021/05/14 00:45:19;;;;;;;;;;;;;;;10.93;68.58;99030.16;2215799;40;19936;-78
2021/05/14 00:46:49;;;;;;;;;;;;;;;10.90;68.83;99045.72;2218174;40;20276;-79
2021/05/14 00:48:20;;;;;;;;;;;;;;;10.92;68.85;99038.38;2215198;40;19957;-79
2021/05/14 00:49:51;;;;;;;;;;;;;;;10.91;68.95;99028.66;2212201;40;19941;-79
2021/05/14 00:51:23;;;;;;;;;;;;;;;10.90;69.17;99032.34;2213823;40;20352;-79
2021/05/14 00:52:55;;;;;;;;;;;;;;;10.89;69.16;99036.03;2218343;40;19948;-79
2021/05/14 00:54:27;;;;;;;;;;;;;;;10.87;69.18;99038.03;2216487;40;19998;-79
2021/05/14 00:55:58;;;;;;;;;;;;;;;10.84;69.26;99039.22;2217827;40;19937;-79
2021/05/14 00:57:30;;;;;;;;;;;;;;;10.82;69.33;99032.38;2218834;40;19959;-81
2021/05/14 00:59:01;;;;;;;;;;;;;;;10.84;69.29;99035.72;2217834;40;19941;-78
2021/05/14 01:00:32;;;;;;;;;;;;;;;10.84;69.30;99031.19;2223016;39;19952;-80
2021/05/14 01:02:02;;;;;;;;;;;;;;;10.86;69.28;99036.38;2219936;40;20225;-80
2021/05/14 01:03:33;;;;;;;;;;;;;;;10.87;69.19;99030.00;2213102;40;19972;-79
2021/05/14 01:05:05;;;;;;;;;;;;;;;10.86;69.15;99026.50;2216323;40;20210;-80
2021/05/14 01:06:37;;;;;;;;;;;;;;;10.83;69.15;99034.88;2215092;40;20466;-79
2021/05/14 01:08:08;;;;;;;;;;;;;;;10.82;69.23;99037.72;2221268;40;19973;-78
2021/05/14 01:09:40;;;;;;;;;;;;;;;10.79;69.33;99030.03;2217105;39;19937;-80
2021/05/14 01:11:11;;;;;;;;;;;;;;;10.77;69.38;99039.06;2221700;40;19949;-80
2021/05/14 01:12:42;;;;;;;;;;;;;;;10.76;69.32;99029.41;2216923;39;20594;-79
2021/05/14 01:14:13;;;;;;;;;;;;;;;10.75;69.33;99030.41;2222861;40;19937;-80
2021/05/14 01:15:44;;;;;;;;;;;;;;;10.79;69.28;99032.72;2216829;39;19937;-78
2021/05/14 01:17:15;;;;;;;;;;;;;;;10.83;69.13;99026.84;2217568;40;19944;-78
2021/05/14 01:18:46;;;;;;;;;;;;;;;10.88;68.99;99026.34;2214929;40;19937;-79
2021/05/14 01:20:18;;;;;;;;;;;;;;;10.90;68.86;99024.31;2218134;40;20456;-78
2021/05/14 01:21:50;;;;;;;;;;;;;;;10.88;68.81;99026.34;2222616;39;20375;-78
2021/05/14 01:23:21;;;;;;;;;;;;;;;10.87;68.81;99019.31;2216824;40;19957;-80
2021/05/14 01:24:52;;;;;;;;;;;;;;;10.86;68.88;99025.69;2220007;40;19945;-79
2021/05/14 01:26:26;;;;;;;;;;;;;;;10.85;68.90;99022.16;2217916;39;19937;-79
2021/05/14 01:27:57;;;;;;;;;;;;;;;10.91;68.73;99020.66;2221078;40;20084;-78
2021/05/14 01:29:27;;;;;;;;;;;;;;;10.97;68.52;99022.63;2221635;39;19941;-77
2021/05/14 01:30:58;;;;;;;;;;;;;;;10.99;68.47;99023.28;2221482;40;19952;-78
2021/05/14 01:32:30;;;;;;;;;;;;;;;11.05;68.26;99024.44;2217846;40;19941;-80
2021/05/14 01:34:01;;;;;;;;;;;;;;;11.11;67.97;99025.59;2210999;40;19944;-80
2021/05/14 01:35:32;;;;;;;;;;;;;;;11.16;67.71;99026.75;2211336;40;20368;-78
2021/05/14 01:37:04;;;;;;;;;;;;;;;11.20;67.55;99027.22;2216180;40;19944;-80
2021/05/14 01:38:35;;;;;;;;;;;;;;;11.19;67.36;99029.06;2215145;40;20368;-78
2021/05/14 01:40:07;;;;;;;;;;;;;;;11.22;67.25;99025.22;2217312;40;20401;-80
2021/05/14 01:41:38;;;;;;;;;;;;;;;11.22;67.24;99027.91;2216815;40;20050;-80
2021/05/14 01:43:09;;;;;;;;;;;;;;;11.23;67.25;99026.91;2217961;40;19945;-79
2021/05/14 01:44:40;;;;;;;;;;;;;;;11.23;67.31;99029.56;2213968;40;19956;-79
2021/05/14 01:46:11;;;;;;;;;;;;;;;11.23;67.32;99025.03;2211577;40;19955;-79
2021/05/14 01:47:42;;;;;;;;;;;;;;;11.24;67.27;99028.56;2208377;40;19945;-79
2021/05/14 01:49:14;;;;;;;;;;;;;;;11.23;67.40;99026.91;2208302;40;19934;-79
2021/05/14 01:50:45;;;;;;;;;;;;;;;11.18;67.53;99023.88;2206212;40;19942;-79
2021/05/14 01:52:16;;;;;;;;;;;;;;;11.17;67.67;99027.56;2211861;40;20368;-79
2021/05/14 01:53:48;;;;;;;;;;;;;;;11.17;67.69;99025.75;2212288;40;20574;-80
2021/05/14 01:55:19;;;;;;;;;;;;;;;11.17;67.69;99031.09;2214625;40;19945;-80
2021/05/14 01:56:50;;;;;;;;;;;;;;;11.18;67.69;99026.56;2211107;40;20156;-80
2021/05/14 01:58:21;;;;;;;;;;;;;;;11.18;67.63;99031.91;2210863;40;19987;-79
2021/05/14 01:59:52;;;;;;;;;;;;;;;11.18;67.68;99026.56;2212122;40;19944;-78
2021/05/14 02:01:25;;;;;;;;;;;;;;;11.19;67.61;99022.88;2215729;40;19948;-79
2021/05/14 02:02:56;;;;;;;;;;;;;;;11.19;67.60;99022.88;2210927;39;19941;-80
2021/05/14 02:04:28;;;;;;;;;;;;;;;11.19;67.52;99026.38;2216912;40;19972;-79
2021/05/14 02:05:59;;;;;;;;;;;;;;;11.15;67.52;99024.22;2221611;39;19937;-78
2021/05/14 02:07:30;;;;;;;;;;;;;;;11.11;67.61;99026.41;2219422;40;19945;-80
2021/05/14 02:09:04;;;;;;;;;;;;;;;11.10;67.70;99021.25;2219677;39;20291;-81
2021/05/14 02:10:34;;;;;;;;;;;;;;;11.10;67.67;99023.94;2224166;40;20225;-79
2021/05/14 02:12:06;;;;;;;;;;;;;;;11.12;67.58;99021.91;2214026;40;19999;-80
2021/05/14 02:13:37;;;;;;;;;;;;;;;11.11;67.58;99025.59;2212193;40;19949;-79
2021/05/14 02:15:26;;;;;;;;;;;;;;;11.12;67.52;99027.28;2208893;40;20195;-80
2021/05/14 02:16:58;;;;;;;;;;;;;;;11.10;67.57;99029.28;2209147;40;19934;-81
2021/05/14 02:18:32;;;;;;;;;;;;;;;11.10;67.53;99023.94;2167378;40;19952;-82
2021/05/14 02:20:03;;;;;;;;;;;;;;;11.10;67.57;99022.06;2206221;40;19976;-78
2021/05/14 02:21:35;;;;;;;;;;;;;;;11.06;67.52;99024.25;2215601;40;19932;-80
2021/05/14 02:23:07;;;;;;;;;;;;;;;11.04;67.61;99026.31;2211584;40;19944;-79
2021/05/14 02:24:39;;;;;;;;;;;;;;;11.07;67.57;99028.59;2222154;40;19936;-80
2021/05/14 02:30:43;;;;;;;;;;;;;;;11.12;67.29;99021.91;2193513;40;19942;-82
2021/05/14 02:32:45;;;;;;;;;;;;;;;11.12;67.25;99021.91;2176175;40;19946;-82
2021/05/14 02:34:19;;;;;;;;;;;;;;;11.11;67.24;99021.06;2186518;40;19943;-81
2021/05/14 02:40:40;;;;;;;;;;;;;;;11.14;67.46;99019.91;2180237;40;19945;-82
2021/05/14 02:47:06;;;;;;;;;;;;;;;11.08;67.61;99018.75;2183068;41;19942;-81
2021/05/14 02:48:58;;;;;;;;;;;;;;;11.13;67.56;99020.91;2185308;40;19992;-82
2021/05/14 02:50:39;;;;;;;;;;;;;;;11.14;67.48;99014.56;2179761;40;19936;-82
2021/05/14 02:58:31;;;;;;;;;;;;;;;11.10;67.63;99023.94;2192072;40;20007;-82
2021/05/14 03:00:11;;;;;;;;;;;;;;;11.14;67.49;99022.59;2178625;40;19945;-82
2021/05/14 03:01:50;;;;;;;;;;;;;;;11.12;67.40;99020.06;2196444;40;19938;-82
2021/05/14 03:03:27;;;;;;;;;;;;;;;11.10;67.39;99024.75;2173381;40;19942;-81
2021/05/14 03:05:21;;;;;;;;;;;;;;;11.10;67.32;99021.25;2191909;40;19934;-82
2021/05/14 03:06:57;;;;;;;;;;;;;;;11.15;67.24;99018.88;2179474;40;19941;-82
2021/05/14 03:10:17;;;;;;;;;;;;;;;11.19;66.99;99020.22;2173882;41;20431;-82
2021/05/14 03:11:59;;;;;;;;;;;;;;;11.21;66.96;99020.88;2177357;40;19971;-82
2021/05/14 03:15:27;;;;;;;;;;;;;;;11.27;66.65;99019.34;2199604;40;19942;-82
2021/05/14 03:17:10;;;;;;;;;;;;;;;11.28;66.52;99024.50;2204707;40;19934;-83
2021/05/14 03:20:49;;;;;;;;;;;;;;;11.29;66.14;99020.03;2176467;41;19938;-82
2021/05/14 03:22:55;;;;;;;;;;;;;;;11.24;66.15;99020.53;2185842;40;20353;-82
2021/05/14 03:29:02;;;;;;;;;;;;;;;10.88;67.74;99016.47;2186637;40;19935;-84
2021/05/14 03:32:45;;;;;;;;;;;;;;;10.75;68.42;99018.84;2187232;40;19951;-82
2021/05/14 03:34:46;;;;;;;;;;;;;;;10.79;68.49;99016.66;2200962;40;19939;-81
2021/05/14 03:36:47;;;;;;;;;;;;;;;10.87;68.30;99013.97;2200001;40;19934;-83
2021/05/14 03:46:35;;;;;;;;;;;;;;;10.80;68.16;99029.88;2204272;40;19935;-81
2021/05/14 03:54:07;;;;;;;;;;;;;;;10.72;68.28;99037.94;2200833;40;19930;-82
2021/05/14 03:55:39;;;;;;;;;;;;;;;10.71;68.45;99036.25;2204520;40;19938;-81
2021/05/14 04:15:16;;;;;;;;;;;;;;;10.84;68.66;99033.88;2214269;40;19945;-82
2021/05/14 04:21:27;;;;;;;;;;;;;;;10.79;68.88;99038.06;2212596;40;20484;-82
2021/05/14 04:25:31;;;;;;;;;;;;;;;10.74;68.91;99030.53;2203938;40;19929;-82
2021/05/14 04:27:26;;;;;;;;;;;;;;;10.79;68.75;99036.22;2208870;40;20057;-82
2021/05/14 04:29:09;;;;;;;;;;;;;;;10.74;68.71;99036.75;2217337;40;19934;-82
2021/05/14 04:30:46;;;;;;;;;;;;;;;10.64;68.87;99030.75;2213446;40;19936;-82
2021/05/14 04:38:40;;;;;;;;;;;;;;;10.51;68.92;99041.97;2197141;40;19938;-82
2021/05/14 04:40:17;;;;;;;;;;;;;;;10.55;68.85;99047.81;2223024;40;19945;-82
2021/05/14 04:41:56;;;;;;;;;;;;;;;10.59;68.70;99041.09;2217297;40;19941;-81
2021/05/14 04:43:29;;;;;;;;;;;;;;;10.67;68.61;99042.94;2218621;40;19980;-82
2021/05/14 04:45:08;;;;;;;;;;;;;;;10.73;68.37;99040.41;2212730;40;19949;-81
2021/05/14 04:47:04;;;;;;;;;;;;;;;10.83;68.20;99036.72;2217303;40;19948;-82
2021/05/14 04:48:42;;;;;;;;;;;;;;;10.85;68.12;99040.06;2212176;40;19945;-81
2021/05/14 04:52:47;;;;;;;;;;;;;;;10.74;68.85;99041.22;2217633;40;19944;-82
2021/05/14 04:54:27;;;;;;;;;;;;;;;10.65;69.48;99042.25;2203328;40;19935;-82
2021/05/14 04:56:16;;;;;;;;;;;;;;;10.58;69.58;99047.47;2217291;40;19942;-82
2021/05/14 04:59:51;;;;;;;;;;;;;;;10.53;70.06;99050.63;2224883;39;19944;-82
2021/05/14 05:01:27;;;;;;;;;;;;;;;10.47;70.23;99043.28;2229449;40;19940;-82
2021/05/14 05:07:56;;;;;;;;;;;;;;;10.54;69.91;99048.81;2216997;40;19966;-82
2021/05/14 05:11:46;;;;;;;;;;;;;;;10.63;69.33;99047.78;2213422;40;19929;-81
2021/05/14 05:16:01;;;;;;;;;;;;;;;10.63;69.11;99046.97;2202824;40;19942;-83
2021/05/14 05:19:48;;;;;;;;;;;;;;;10.85;68.21;99045.41;2212113;40;19941;-82
2021/05/14 05:21:23;;;;;;;;;;;;;;;10.85;67.94;99048.09;2210826;40;19937;-82
2021/05/14 05:23:16;;;;;;;;;;;;;;;10.90;67.79;99051.06;2211204;40;20025;-84
2021/05/14 05:33:23;;;;;;;;;;;;;;;11.27;66.33;99057.63;2207427;40;19930;-81
2021/05/14 05:35:13;;;;;;;;;;;;;;;11.24;65.98;99058.00;2223044;40;19940;-81
2021/05/14 05:38:43;;;;;;;;;;;;;;;11.27;66.06;99062.16;2199572;40;19948;-81
2021/05/14 05:40:34;;;;;;;;;;;;;;;11.28;65.88;99061.97;2222567;40;19952;-81
2021/05/14 05:44:27;;;;;;;;;;;;;;;11.35;65.56;99062.94;2215649;39;19987;-82
2021/05/14 05:45:59;;;;;;;;;;;;;;;11.36;65.65;99061.13;2223763;40;19936;-82
2021/05/14 05:47:58;;;;;;;;;;;;;;;11.39;65.55;99058.91;2211038;40;19929;-82
2021/05/14 05:49:56;;;;;;;;;;;;;;;11.43;65.43;99061.25;2228790;40;19953;-82
2021/05/14 05:56:46;;;;;;;;;;;;;;;11.54;65.12;99069.72;2211868;40;19933;-83
2021/05/14 05:58:40;;;;;;;;;;;;;;;11.55;65.06;99066.03;2213019;40;19996;-84
2021/05/14 06:00:12;;;;;;;;;;;;;;;11.58;65.15;99072.88;2205921;40;19934;-84
2021/05/14 06:01:43;;;;;;;;;;;;;;;11.65;65.02;99065.81;2204427;40;19941;-83
2021/05/14 06:03:14;;;;;;;;;;;;;;;11.73;64.83;99070.28;2211727;40;19941;-82
2021/05/14 06:04:46;;;;;;;;;;;;;;;11.79;64.73;99066.91;2198285;40;19938;-84
2021/05/14 06:06:20;;;;;;;;;;;;;;;11.77;64.52;99074.28;2198197;40;19990;-82
2021/05/14 06:08:11;;;;;;;;;;;;;;;11.83;64.46;99073.59;2204636;40;19942;-83
2021/05/14 06:09:46;;;;;;;;;;;;;;;11.86;64.00;99075.88;2153510;40;19943;-81
2021/05/14 06:11:17;;;;;;;;;;;;;;;11.90;64.13;99079.06;2184287;40;19982;-83
2021/05/14 06:12:49;;;;;;;;;;;;;;;12.00;63.82;99077.00;2176935;40;20363;-82
2021/05/14 06:14:32;;;;;;;;;;;;;;;12.05;63.73;99078.31;2186284;40;19939;-83
2021/05/14 06:16:28;;;;;;;;;;;;;;;12.12;63.51;99082.81;2162556;40;19940;-84
2021/05/14 06:20:32;;;;;;;;;;;;;;;12.31;62.98;99081.47;2155560;41;19933;-83
2021/05/14 06:22:09;;;;;;;;;;;;;;;12.29;63.02;99082.66;2139318;41;19953;-82
2021/05/14 06:23:41;;;;;;;;;;;;;;;12.27;63.10;99090.91;2161076;41;19983;-82
2021/05/14 06:25:22;;;;;;;;;;;;;;;12.22;63.13;99093.28;2186155;40;20626;-83
2021/05/14 06:26:54;;;;;;;;;;;;;;;12.16;63.35;99089.44;2199392;40;19948;-82
2021/05/14 06:28:26;;;;;;;;;;;;;;;12.16;63.46;99092.13;2203915;40;19963;-82
2021/05/14 06:29:59;;;;;;;;;;;;;;;12.16;63.49;99094.81;2198161;40;19994;-82
2021/05/14 06:31:30;;;;;;;;;;;;;;;12.21;63.50;99096.13;2185822;40;19946;-82
2021/05/14 06:33:03;;;;;;;;;;;;;;;12.20;63.35;99092.59;2179791;41;19946;-82
2021/05/14 06:34:35;;;;;;;;;;;;;;;12.22;63.29;99101.31;2179468;41;20384;-82
2021/05/14 06:36:06;;;;;;;;;;;;;;;12.29;63.14;99090.72;2184054;40;19959;-82
2021/05/14 06:37:39;;;;;;;;;;;;;;;12.28;63.06;99099.75;2185397;40;19971;-82
2021/05/14 06:39:12;;;;;;;;;;;;;;;12.29;62.95;99104.94;2193955;40;20017;-82
2021/05/14 06:40:43;;;;;;;;;;;;;;;12.38;62.84;99102.19;2203772;40;19970;-83
2021/05/14 06:42:21;;;;;;;;;;;;;;;12.46;62.53;99105.66;2202550;40;19938;-82
2021/05/14 06:43:56;;;;;;;;;;;;;;;12.51;62.48;99102.44;2204074;40;19934;-82
2021/05/14 06:45:30;;;;;;;;;;;;;;;12.58;62.33;99103.38;2191559;40;19958;-82
2021/05/14 06:47:01;;;;;;;;;;;;;;;12.62;62.25;99098.47;2185862;40;19939;-82
2021/05/14 06:49:08;;;;;;;;;;;;;;;12.66;62.25;99102.47;2169676;40;20064;-83
2021/05/14 06:50:58;;;;;;;;;;;;;;;12.79;62.08;99099.16;2180971;40;19983;-83
2021/05/14 06:52:46;;;;;;;;;;;;;;;12.94;61.60;99094.63;2170432;41;19954;-84
2021/05/14 07:01:22;;;;;;;;;;;;;;;13.02;61.33;99093.72;2149136;41;19936;-82
2021/05/14 07:02:53;;;;;;;;;;;;;;;12.93;61.69;99095.69;2174916;41;19960;-81
2021/05/14 07:04:53;;;;;;;;;;;;;;;12.94;61.88;99101.88;2180159;40;19955;-83
2021/05/14 07:06:42;;;;;;;;;;;;;;;13.08;61.66;99102.91;2134398;41;19959;-82
2021/05/14 07:08:14;;;;;;;;;;;;;;;13.19;61.37;99102.44;2181528;40;19956;-81
2021/05/14 07:41:23;;;;;;;;;;;;;;;15.75;53.75;99065.16;2216314;40;19945;-79
2021/05/14 07:42:54;;;;;;;;;;;;;;;15.65;53.68;99075.50;2158605;40;19963;-78
2021/05/14 07:44:24;;;;;;;;;;;;;;;15.47;54.26;99070.66;2205703;40;20121;-79
2021/05/14 07:45:55;;;;;;;;;;;;;;;15.49;54.52;99071.31;2221530;40;19948;-78
2021/05/14 07:47:26;;;;;;;;;;;;;;;15.64;54.16;99071.13;2220508;40;19968;-78
2021/05/14 07:48:59;;;;;;;;;;;;;;;15.61;53.70;99072.38;2216845;40;19945;-79
2021/05/14 07:50:30;;;;;;;;;;;;;;;15.75;53.49;99076.78;2216385;40;19988;-78
2021/05/14 07:52:00;;;;;;;;;;;;;;;16.02;52.45;99082.28;2222889;40;19944;-78
2021/05/14 07:53:31;;;;;;;;;;;;;;;16.12;52.13;99075.66;2221777;40;19930;-78
2021/05/14 07:55:03;;;;;;;;;;;;;;;16.22;51.81;99078.78;2222947;40;19944;-78
2021/05/14 07:56:34;;;;;;;;;;;;;;;16.33;50.75;99075.50;2215469;40;19931;-79
2021/05/14 07:58:05;;;;;;;;;;;;;;;16.36;51.11;99076.94;2217241;40;19945;-79
2021/05/14 07:59:36;;;;;;;;;;;;;;;16.66;50.55;99073.84;2216455;40;19932;-78
2021/05/14 08:01:07;;;;;;;;;;;;;;;17.00;49.66;99072.75;2216880;40;19940;-79
2021/05/14 08:02:38;;;;;;;;;;;;;;;17.11;49.06;99073.16;2218255;40;19941;-78
2021/05/14 08:04:09;;;;;;;;;;;;;;;17.43;48.59;99070.59;2216800;40;19933;-81
2021/05/14 08:05:40;;;;;;;;;;;;;;;17.46;48.41;99071.00;2218960;40;20003;-79
2021/05/14 08:07:11;;;;;;;;;;;;;;;17.47;48.00;99069.13;2220708;40;19944;-80
2021/05/14 08:08:42;;;;;;;;;;;;;;;17.21;48.05;99070.03;2221455;40;19929;-79
2021/05/14 08:10:13;;;;;;;;;;;;;;;17.04;48.40;99072.34;2218506;40;19943;-78
2021/05/14 08:11:45;;;;;;;;;;;;;;;17.04;48.42;99061.56;2216359;40;19930;-79
2021/05/14 08:13:17;;;;;;;;;;;;;;;17.14;47.82;99073.56;2219200;40;19949;-79
2021/05/14 08:14:48;;;;;;;;;;;;;;;17.08;47.68;99069.03;2215215;40;19935;-80
2021/05/14 08:16:18;;;;;;;;;;;;;;;17.02;47.80;99074.44;2217277;40;19961;-79
2021/05/14 08:17:51;;;;;;;;;;;;;;;17.15;47.87;99069.00;2215582;40;20385;-78
2021/05/14 08:19:22;;;;;;;;;;;;;;;17.49;47.24;99064.31;2217712;40;19929;-79
2021/05/14 08:20:52;;;;;;;;;;;;;;;17.85;46.58;99068.34;2221750;40;19929;-81
2021/05/14 08:22:23;;;;;;;;;;;;;;;17.85;45.60;99062.09;2220778;40;19945;-80
2021/05/14 08:23:54;;;;;;;;;;;;;;;17.48;45.90;99062.66;2216642;40;19936;-79
2021/05/14 08:25:25;;;;;;;;;;;;;;;17.15;46.74;99069.00;2216784;40;19938;-79
2021/05/14 08:26:57;;;;;;;;;;;;;;;16.88;47.38;99065.50;2219060;40;19937;-80
2021/05/14 08:28:28;;;;;;;;;;;;;;;16.78;47.58;99069.44;2222965;40;19929;-79
2021/05/14 08:29:59;;;;;;;;;;;;;;;16.69;47.36;99066.16;2220691;40;19945;-80
2021/05/14 08:31:32;;;;;;;;;;;;;;;16.44;47.57;99073.19;2216547;40;19944;-79
2021/05/14 08:33:03;;;;;;;;;;;;;;;16.37;47.65;99068.63;2217834;40;19995;-79
2021/05/14 08:34:34;;;;;;;;;;;;;;;16.23;47.92;99077.75;2221635;40;19933;-78
2021/05/14 08:36:06;;;;;;;;;;;;;;;16.22;47.85;99073.41;2221515;40;19933;-78
2021/05/14 08:37:37;;;;;;;;;;;;;;;16.21;48.09;99080.66;2218723;40;19933;-81
2021/05/14 08:39:09;;;;;;;;;;;;;;;16.15;48.45;99076.09;2215360;40;19946;-78
2021/05/14 08:40:40;;;;;;;;;;;;;;;16.09;48.73;99076.06;2220341;40;20004;-79
2021/05/14 08:42:13;;;;;;;;;;;;;;;16.05;48.92;99081.88;2216296;40;19941;-80
2021/05/14 08:43:44;;;;;;;;;;;;;;;16.08;49.25;99082.50;2218237;40;19945;-79
2021/05/14 08:45:16;;;;;;;;;;;;;;;16.19;49.10;99082.75;2219416;40;20011;-80
2021/05/14 08:46:48;;;;;;;;;;;;;;;16.26;48.79;99077.34;2218596;40;19992;-80
2021/05/14 08:48:20;;;;;;;;;;;;;;;16.25;48.82;99078.38;2219218;40;19937;-79
2021/05/14 08:49:51;;;;;;;;;;;;;;;16.27;48.79;99070.91;2222884;40;19945;-79
2021/05/14 08:51:26;;;;;;;;;;;;;;;16.22;48.67;99076.09;2217931;40;19966;-79
2021/05/14 08:52:57;;;;;;;;;;;;;;;16.03;49.64;99089.34;2216627;40;19934;-78
2021/05/14 08:54:28;;;;;;;;;;;;;;;16.06;49.62;99075.44;2218999;40;19936;-79
2021/05/14 08:55:59;;;;;;;;;;;;;;;16.05;48.89;99070.25;2222676;40;19930;-79
2021/05/14 08:57:31;;;;;;;;;;;;;;;16.05;48.91;99084.56;2219726;40;19929;-78
2021/05/14 08:59:02;;;;;;;;;;;;;;;16.06;48.62;99078.13;2219228;40;19934;-79
2021/05/14 09:00:33;;;;;;;;;;;;;;;16.09;48.22;99070.66;2215439;40;19932;-79
2021/05/14 09:02:04;;;;;;;;;;;;;;;16.11;48.48;99080.22;2221457;40;19933;-78
2021/05/14 09:03:50;;;;;;;;;;;;;;;16.11;48.33;99080.22;2221437;40;19932;-78
2021/05/14 09:05:22;;;;;;;;;;;;;;;15.96;48.60;99077.72;2216947;40;19980;-79
2021/05/14 09:06:53;;;;;;;;;;;;;;;15.93;48.81;99078.13;2219690;40;19933;-78
2021/05/14 09:08:24;;;;;;;;;;;;;;;15.88;49.03;99075.19;2218823;40;19933;-80
2021/05/14 09:10:07;;;;;;;;;;;;;;;15.79;49.24;99076.38;2222109;40;19952;-79
2021/05/14 09:11:39;;;;;;;;;;;;;;;15.66;49.78;99077.16;2217977;40;19932;-79
2021/05/14 09:13:11;;;;;;;;;;;;;;;15.68;49.99;99086.69;2216334;40;19945;-79
2021/05/14 09:14:44;;;;;;;;;;;;;;;15.79;49.33;99077.22;2216224;40;20052;-78
2021/05/14 09:16:15;;;;;;;;;;;;;;;15.98;49.34;99070.22;2220400;40;19953;-79
2021/05/14 09:18:01;;;;;;;;;;;;;;;16.35;48.23;99070.69;2218466;40;20108;-80
2021/05/14 09:19:33;;;;;;;;;;;;;;;16.57;47.71;99065.13;2221935;40;19996;-82
2021/05/14 09:21:04;;;;;;;;;;;;;;;16.70;47.07;99066.97;2221520;40;19936;-78
2021/05/14 09:22:34;;;;;;;;;;;;;;;16.72;47.15;99073.00;2220235;40;19933;-78
2021/05/14 09:24:06;;;;;;;;;;;;;;;16.76;46.90;99070.72;2221060;40;20516;-78
2021/05/14 09:25:39;;;;;;;;;;;;;;;16.84;47.21;99067.78;2222744;40;19941;-79
2021/05/14 09:27:17;;;;;;;;;;;;;;;16.65;46.10;99075.69;2219812;40;19945;-79
2021/05/14 09:28:50;;;;;;;;;;;;;;;16.36;46.72;99071.56;2220875;40;19930;-81
2021/05/14 09:30:21;;;;;;;;;;;;;;;16.05;46.36;99068.41;2214993;40;19926;-78
2021/05/14 09:31:52;;;;;;;;;;;;;;;15.82;46.85;99068.69;2216076;40;19949;-79
2021/05/14 09:33:26;;;;;;;;;;;;;;;15.76;47.08;99077.59;2218335;40;19933;-79
2021/05/14 09:34:58;;;;;;;;;;;;;;;15.72;47.41;99077.19;2222973;40;19944;-78
2021/05/14 09:36:30;;;;;;;;;;;;;;;15.71;47.53;99074.69;2220234;40;19929;-78
2021/05/14 09:38:01;;;;;;;;;;;;;;;15.67;48.27;99074.28;2222616;40;19948;-78
2021/05/14 09:39:32;;;;;;;;;;;;;;;15.87;48.07;99068.16;2221115;40;19941;-79
2021/05/14 09:41:03;;;;;;;;;;;;;;;16.32;47.32;99071.13;2218654;40;20577;-78
2021/05/14 09:42:34;;;;;;;;;;;;;;;16.60;46.82;99067.41;2214893;40;19933;-79
2021/05/14 09:44:09;;;;;;;;;;;;;;;16.77;46.51;99069.66;2218115;40;19933;-77
2021/05/14 09:45:40;;;;;;;;;;;;;;;16.80;46.44;99072.78;2215458;40;19929;-79
2021/05/14 09:47:11;;;;;;;;;;;;;;;16.78;46.20;99065.94;2219036;40;19944;-79
2021/05/14 09:48:54;;;;;;;;;;;;;;;16.61;46.54;99065.53;2222709;40;19940;-78
2021/05/14 09:50:32;;;;;;;;;;;;;;;16.46;46.37;99073.81;2220269;40;19941;-79
2021/05/14 09:52:05;;;;;;;;;;;;;;;16.37;46.40;99065.94;2216438;40;20620;-79
2021/05/14 09:53:36;;;;;;;;;;;;;;;16.20;46.47;99062.00;2215027;40;19946;-78
2021/05/14 09:55:21;;;;;;;;;;;;;;;16.11;46.38;99065.91;2216609;40;19942;-80
2021/05/14 09:57:05;;;;;;;;;;;;;;;16.05;46.86;99056.78;2217743;40;19925;-79
2021/05/14 09:58:37;;;;;;;;;;;;;;;16.08;46.05;99063.63;2216391;40;19925;-80
2021/05/14 10:00:12;;;;;;;;;;;;;;;16.05;45.83;99063.00;2215100;40;19929;-80
2021/05/14 10:01:43;;;;;;;;;;;;;;;16.22;45.53;99059.91;2220584;40;19935;-79
2021/05/14 10:03:15;;;;;;;;;;;;;;;16.25;45.15;99062.19;2221062;40;19952;-79
2021/05/14 10:04:46;;;;;;;;;;;;;;;16.25;45.24;99059.50;2221925;40;19933;-78
2021/05/14 10:06:17;;;;;;;;;;;;;;;16.29;45.28;99059.94;2221244;40;19936;-79
2021/05/14 10:07:48;;;;;;;;;;;;;;;16.51;44.78;99055.16;2222425;40;19944;-78
2021/05/14 10:09:21;;;;;;;;;;;;;;;16.90;44.18;99045.38;2215959;40;19925;-78
2021/05/14 10:10:52;;;;;;;;;;;;;;;17.54;43.03;99044.75;2221584;40;19986;-78
2021/05/14 10:12:23;;;;;;;;;;;;;;;18.18;41.76;99039.47;2215072;40;19933;-79
2021/05/14 10:13:54;;;;;;;;;;;;;;;18.56;40.97;99041.25;2216523;40;19944;-79
2021/05/14 10:15:26;;;;;;;;;;;;;;;18.88;40.48;99034.91;2218825;40;19925;-79
2021/05/14 10:16:57;;;;;;;;;;;;;;;19.05;39.85;99038.69;2222537;40;19948;-79
2021/05/14 10:18:29;;;;;;;;;;;;;;;19.04;39.79;99034.34;2218782;40;19925;-80
2021/05/14 10:20:02;;;;;;;;;;;;;;;18.58;41.02;99032.88;2222368;40;19929;-79
2021/05/14 10:21:33;;;;;;;;;;;;;;;18.62;40.69;99039.50;2221271;40;19979;-79
2021/05/14 10:23:05;;;;;;;;;;;;;;;18.71;40.09;99032.75;2221682;40;19941;-78
2021/05/14 10:24:43;;;;;;;;;;;;;;;18.74;39.61;99037.72;2220066;40;20027;-80
2021/05/14 10:26:14;;;;;;;;;;;;;;;18.70;39.03;99031.94;2217501;40;19941;-78
2021/05/14 10:27:45;;;;;;;;;;;;;;;18.63;39.16;99030.34;2216262;40;20662;-79
2021/05/14 10:29:16;;;;;;;;;;;;;;;18.68;38.94;99033.22;2219942;40;19933;-80
2021/05/14 10:31:06;;;;;;;;;;;;;;;18.58;38.69;99032.88;2222604;40;19980;-80
2021/05/14 10:32:51;;;;;;;;;;;;;;;18.54;39.02;99044.16;2214896;40;20009;-80
2021/05/14 10:34:23;;;;;;;;;;;;;;;18.44;39.12;99033.00;2216311;40;19938;-80
2021/05/14 10:35:53;;;;;;;;;;;;;;;18.34;40.06;99038.91;2219401;40;19929;-79
2021/05/14 10:37:39;;;;;;;;;;;;;;;18.63;39.75;99031.19;2222524;40;20371;-79
2021/05/14 10:39:11;;;;;;;;;;;;;;;19.09;39.21;99018.22;2217043;40;20021;-79
2021/05/14 10:40:43;;;;;;;;;;;;;;;19.49;38.61;99016.94;2221090;40;19930;-81
2021/05/14 10:42:15;;;;;;;;;;;;;;;20.04;37.91;99023.28;2219804;40;19936;-78
2021/05/14 10:43:58;;;;;;;;;;;;;;;20.51;37.27;99012.50;2222104;40;20408;-79
2021/05/14 10:45:37;;;;;;;;;;;;;;;20.56;35.53;99018.03;2220513;40;19952;-81
2021/05/14 10:47:34;;;;;;;;;;;;;;;20.18;35.16;99019.31;2216228;40;19938;-80